SAS454 ESMQ-ESSA
Flight info
| Callsign | SAS454 |
|---|---|
| Flight time | 0h 34m |
| Altitude | 24000 |
| Route | MOVIS DCT VIBAR Z227 NILUG |
| Aircraft | B738/M-SDE2E3FGHIRWXY/LB1 |
Departure
| Time | 2026-05-03 23:15 |
|---|---|
| Airport | Kalmar Airport (ESMQ) |
Arrival
| Time | 2026-05-03 23:49 |
|---|---|
| Airport | Stockholm-Arlanda Airport (ESSA) |
| Time | Latitude | Longitude | Altitude | Speed | Heading |
|---|---|---|---|---|---|
| 2026-05-03 23:01 | 56.67799 | 16.28962 | 31 ft | 0 kts | 214° |
| 2026-05-03 23:09 | 56.67819 | 16.28986 | 31 ft | 4 kts | 211° |
| 2026-05-03 23:09 | 56.67842 | 16.29006 | 30 ft | 4 kts | 185° |
| 2026-05-03 23:10 | 56.67855 | 16.29013 | 30 ft | 4 kts | 89° |
| 2026-05-03 23:10 | 56.67854 | 16.29003 | 30 ft | 1 kts | 70° |
| 2026-05-03 23:13 | 56.67854 | 16.29004 | 30 ft | 1 kts | 71° |
| 2026-05-03 23:13 | 56.67849 | 16.29043 | 30 ft | 5 kts | 110° |
| 2026-05-03 23:13 | 56.67836 | 16.29120 | 31 ft | 7 kts | 95° |
| 2026-05-03 23:13 | 56.67843 | 16.29247 | 31 ft | 12 kts | 80° |
| 2026-05-03 23:14 | 56.67864 | 16.29371 | 31 ft | 8 kts | 45° |
| 2026-05-03 23:14 | 56.67912 | 16.29364 | 30 ft | 3 kts | 333° |
| 2026-05-03 23:14 | 56.67921 | 16.29355 | 30 ft | 7 kts | 333° |
| 2026-05-03 23:14 | 56.68167 | 16.29120 | 32 ft | 78 kts | 332° |
| 2026-05-03 23:15 | 56.68861 | 16.28455 | 32 ft | 145 kts | 333° |
| 2026-05-03 23:15 | 56.69860 | 16.27563 | 488 ft | 163 kts | 335° |
| 2026-05-03 23:15 | 56.70851 | 16.26622 | 1276 ft | 170 kts | 331° |
| 2026-05-03 23:15 | 56.71984 | 16.25535 | 1776 ft | 194 kts | 329° |
| 2026-05-03 23:16 | 56.73230 | 16.24307 | 2290 ft | 211 kts | 328° |
| 2026-05-03 23:16 | 56.74576 | 16.23142 | 2775 ft | 226 kts | 346° |
| 2026-05-03 23:16 | 56.76183 | 16.23274 | 3356 ft | 239 kts | 6° |
| 2026-05-03 23:16 | 56.77921 | 16.23743 | 3634 ft | 267 kts | 5° |
| 2026-05-03 23:17 | 56.79814 | 16.24207 | 4204 ft | 280 kts | 4° |
| 2026-05-03 23:17 | 56.81774 | 16.24664 | 4946 ft | 287 kts | 3° |
| 2026-05-03 23:17 | 56.83768 | 16.25112 | 5744 ft | 291 kts | 2° |
| 2026-05-03 23:17 | 56.85789 | 16.25553 | 6531 ft | 294 kts | 2° |
| 2026-05-03 23:18 | 56.87839 | 16.25992 | 7314 ft | 298 kts | 1° |
| 2026-05-03 23:18 | 56.89914 | 16.26431 | 8086 ft | 302 kts | 1° |
| 2026-05-03 23:18 | 56.92019 | 16.26873 | 8845 ft | 307 kts | 1° |
| 2026-05-03 23:18 | 56.94155 | 16.27320 | 9599 ft | 311 kts | 1° |
| 2026-05-03 23:19 | 56.96326 | 16.27774 | 10218 ft | 320 kts | 1° |
| 2026-05-03 23:19 | 56.98615 | 16.28291 | 10412 ft | 344 kts | 3° |
| 2026-05-03 23:19 | 57.01056 | 16.28935 | 10656 ft | 364 kts | 4° |
| 2026-05-03 23:19 | 57.03591 | 16.29642 | 11215 ft | 371 kts | 4° |
| 2026-05-03 23:20 | 57.06155 | 16.30364 | 11976 ft | 374 kts | 4° |
| 2026-05-03 23:20 | 57.08736 | 16.31085 | 12772 ft | 376 kts | 4° |
| 2026-05-03 23:20 | 57.11331 | 16.31803 | 13552 ft | 379 kts | 4° |
| 2026-05-03 23:20 | 57.13954 | 16.32522 | 14263 ft | 383 kts | 4° |
| 2026-05-03 23:21 | 57.16599 | 16.33245 | 14968 ft | 386 kts | 4° |
| 2026-05-03 23:21 | 57.19261 | 16.33973 | 15710 ft | 389 kts | 4° |
| 2026-05-03 23:21 | 57.21948 | 16.34704 | 16430 ft | 391 kts | 3° |
| 2026-05-03 23:21 | 57.24659 | 16.35218 | 17134 ft | 393 kts | 359° |
| 2026-05-03 23:22 | 57.30165 | 16.35817 | 18430 ft | 401 kts | 358° |
| 2026-05-03 23:22 | 57.32051 | 16.36005 | 18836 ft | 403 kts | 358° |
| 2026-05-03 23:22 | 57.34856 | 16.36303 | 19447 ft | 406 kts | 358° |
| 2026-05-03 23:23 | 57.37688 | 16.36626 | 20024 ft | 410 kts | 359° |
| 2026-05-03 23:23 | 57.40548 | 16.36966 | 20579 ft | 414 kts | 359° |
| 2026-05-03 23:23 | 57.43434 | 16.37319 | 21157 ft | 417 kts | 359° |
| 2026-05-03 23:23 | 57.46346 | 16.37679 | 21702 ft | 422 kts | 359° |
| 2026-05-03 23:24 | 57.49297 | 16.38044 | 22176 ft | 427 kts | 359° |
| 2026-05-03 23:24 | 57.52276 | 16.38413 | 22710 ft | 431 kts | 359° |
| 2026-05-03 23:24 | 57.55238 | 16.38780 | 23249 ft | 434 kts | 359° |
| 2026-05-03 23:24 | 57.58295 | 16.39571 | 23695 ft | 443 kts | 8° |
| 2026-05-03 23:25 | 57.61259 | 16.41316 | 23828 ft | 447 kts | 17° |
| 2026-05-03 23:25 | 57.64113 | 16.43404 | 23844 ft | 448 kts | 18° |
| 2026-05-03 23:25 | 57.67015 | 16.45581 | 23851 ft | 450 kts | 18° |
| 2026-05-03 23:25 | 57.69916 | 16.47764 | 23852 ft | 449 kts | 18° |
| 2026-05-03 23:26 | 57.72818 | 16.49933 | 23844 ft | 449 kts | 18° |
| 2026-05-03 23:26 | 57.75726 | 16.52091 | 23847 ft | 449 kts | 18° |
| 2026-05-03 23:26 | 57.78632 | 16.54233 | 23844 ft | 449 kts | 17° |
| 2026-05-03 23:26 | 57.81538 | 16.56368 | 23842 ft | 449 kts | 17° |
| 2026-05-03 23:27 | 57.84444 | 16.58501 | 23845 ft | 448 kts | 17° |
| 2026-05-03 23:27 | 57.87349 | 16.60633 | 23843 ft | 448 kts | 17° |
| 2026-05-03 23:27 | 57.90255 | 16.62769 | 23845 ft | 448 kts | 17° |
| 2026-05-03 23:27 | 57.93158 | 16.64907 | 23846 ft | 448 kts | 17° |
| 2026-05-03 23:28 | 57.96065 | 16.67052 | 23857 ft | 449 kts | 17° |
| 2026-05-03 23:28 | 57.98973 | 16.69202 | 23848 ft | 449 kts | 17° |
| 2026-05-03 23:28 | 58.01882 | 16.71356 | 23844 ft | 450 kts | 17° |
| 2026-05-03 23:28 | 58.04794 | 16.73518 | 23844 ft | 450 kts | 17° |
| 2026-05-03 23:29 | 58.07666 | 16.75657 | 23830 ft | 437 kts | 17° |
| 2026-05-03 23:29 | 58.10467 | 16.77752 | 23566 ft | 429 kts | 17° |
| 2026-05-03 23:29 | 58.13213 | 16.79805 | 23286 ft | 422 kts | 17° |
| 2026-05-03 23:29 | 58.15930 | 16.81836 | 22875 ft | 417 kts | 17° |
| 2026-05-03 23:30 | 58.18622 | 16.83850 | 22420 ft | 414 kts | 17° |
| 2026-05-03 23:30 | 58.21286 | 16.85845 | 22032 ft | 410 kts | 17° |
| 2026-05-03 23:30 | 58.23923 | 16.87824 | 21586 ft | 407 kts | 17° |
| 2026-05-03 23:30 | 58.26532 | 16.89784 | 21155 ft | 404 kts | 17° |
| 2026-05-03 23:31 | 58.29135 | 16.91744 | 20726 ft | 401 kts | 17° |
| 2026-05-03 23:31 | 58.31722 | 16.93695 | 20297 ft | 398 kts | 17° |
| 2026-05-03 23:31 | 58.34288 | 16.95633 | 19889 ft | 396 kts | 17° |
| 2026-05-03 23:31 | 58.36843 | 16.97567 | 19475 ft | 394 kts | 17° |
| 2026-05-03 23:32 | 58.39380 | 16.99489 | 19066 ft | 391 kts | 17° |
| 2026-05-03 23:32 | 58.41902 | 17.01403 | 18656 ft | 389 kts | 17° |
| 2026-05-03 23:32 | 58.44414 | 17.03313 | 18249 ft | 387 kts | 17° |
| 2026-05-03 23:32 | 58.46913 | 17.05215 | 17835 ft | 386 kts | 17° |
| 2026-05-03 23:33 | 58.49399 | 17.07112 | 17379 ft | 384 kts | 17° |
| 2026-05-03 23:33 | 58.51872 | 17.09001 | 16945 ft | 382 kts | 17° |
| 2026-05-03 23:33 | 58.54294 | 17.10854 | 16535 ft | 379 kts | 17° |
| 2026-05-03 23:33 | 58.56733 | 17.12723 | 16119 ft | 376 kts | 17° |
| 2026-05-03 23:34 | 58.59156 | 17.14583 | 15712 ft | 374 kts | 17° |
| 2026-05-03 23:34 | 58.61559 | 17.16430 | 15321 ft | 371 kts | 17° |
| 2026-05-03 23:34 | 58.63945 | 17.18266 | 14937 ft | 368 kts | 17° |
| 2026-05-03 23:34 | 58.66315 | 17.20093 | 14550 ft | 366 kts | 17° |
| 2026-05-03 23:35 | 58.68669 | 17.21910 | 14162 ft | 364 kts | 17° |
| 2026-05-03 23:35 | 58.71009 | 17.23718 | 13776 ft | 362 kts | 17° |
| 2026-05-03 23:35 | 58.73340 | 17.25522 | 13378 ft | 360 kts | 17° |
| 2026-05-03 23:35 | 58.75662 | 17.27321 | 12946 ft | 359 kts | 17° |
| 2026-05-03 23:36 | 58.77949 | 17.29099 | 12694 ft | 352 kts | 17° |
| 2026-05-03 23:36 | 58.80233 | 17.30872 | 12246 ft | 356 kts | 18° |
| 2026-05-03 23:36 | 58.82536 | 17.32662 | 11818 ft | 359 kts | 18° |
| 2026-05-03 23:36 | 58.84872 | 17.34479 | 11387 ft | 364 kts | 18° |
| 2026-05-03 23:37 | 58.87224 | 17.36313 | 10955 ft | 365 kts | 18° |
| 2026-05-03 23:37 | 58.89567 | 17.38147 | 10571 ft | 361 kts | 18° |
| 2026-05-03 23:37 | 58.91856 | 17.39946 | 10424 ft | 349 kts | 18° |
| 2026-05-03 23:37 | 58.94074 | 17.41691 | 10267 ft | 340 kts | 18° |
| 2026-05-03 23:38 | 58.96234 | 17.43391 | 10118 ft | 331 kts | 18° |
| 2026-05-03 23:38 | 58.98338 | 17.45048 | 9978 ft | 322 kts | 18° |
| 2026-05-03 23:38 | 59.00380 | 17.46658 | 9759 ft | 317 kts | 18° |
| 2026-05-03 23:38 | 59.02429 | 17.48269 | 9371 ft | 314 kts | 18° |
| 2026-05-03 23:39 | 59.04406 | 17.49830 | 9021 ft | 308 kts | 18° |
| 2026-05-03 23:39 | 59.06380 | 17.51390 | 8714 ft | 305 kts | 18° |
| 2026-05-03 23:39 | 59.08373 | 17.52964 | 8403 ft | 304 kts | 18° |
| 2026-05-03 23:39 | 59.10325 | 17.54509 | 8096 ft | 302 kts | 18° |
| 2026-05-03 23:40 | 59.12242 | 17.56029 | 7794 ft | 301 kts | 18° |
| 2026-05-03 23:40 | 59.14177 | 17.57565 | 7491 ft | 299 kts | 18° |
| 2026-05-03 23:40 | 59.16099 | 17.59093 | 7192 ft | 298 kts | 18° |
| 2026-05-03 23:40 | 59.18009 | 17.60614 | 6938 ft | 295 kts | 18° |
| 2026-05-03 23:41 | 59.19899 | 17.62120 | 6684 ft | 292 kts | 18° |
| 2026-05-03 23:41 | 59.21764 | 17.63609 | 6484 ft | 287 kts | 18° |
| 2026-05-03 23:41 | 59.23597 | 17.65074 | 6305 ft | 282 kts | 18° |
| 2026-05-03 23:41 | 59.25394 | 17.66513 | 6119 ft | 277 kts | 18° |
| 2026-05-03 23:42 | 59.27160 | 17.67930 | 5945 ft | 272 kts | 18° |
| 2026-05-03 23:42 | 59.28895 | 17.69321 | 5755 ft | 267 kts | 18° |
| 2026-05-03 23:42 | 59.30602 | 17.70691 | 5543 ft | 262 kts | 18° |
| 2026-05-03 23:42 | 59.32261 | 17.72024 | 5302 ft | 254 kts | 18° |
| 2026-05-03 23:43 | 59.33868 | 17.73317 | 5077 ft | 246 kts | 18° |
| 2026-05-03 23:43 | 59.35428 | 17.74574 | 4861 ft | 239 kts | 18° |
| 2026-05-03 23:43 | 59.36949 | 17.75800 | 4651 ft | 234 kts | 19° |
| 2026-05-03 23:43 | 59.38449 | 17.77008 | 4436 ft | 232 kts | 19° |
| 2026-05-03 23:44 | 59.39940 | 17.78210 | 4239 ft | 230 kts | 19° |
| 2026-05-03 23:44 | 59.41401 | 17.79391 | 4036 ft | 224 kts | 19° |
| 2026-05-03 23:44 | 59.42819 | 17.80538 | 3849 ft | 217 kts | 19° |
| 2026-05-03 23:44 | 59.44195 | 17.81651 | 3657 ft | 211 kts | 19° |
| 2026-05-03 23:45 | 59.45531 | 17.82734 | 3484 ft | 205 kts | 19° |
| 2026-05-03 23:45 | 59.46832 | 17.83790 | 3324 ft | 200 kts | 19° |
| 2026-05-03 23:45 | 59.48096 | 17.84818 | 3181 ft | 193 kts | 19° |
| 2026-05-03 23:45 | 59.49308 | 17.85803 | 3035 ft | 185 kts | 19° |
| 2026-05-03 23:46 | 59.50510 | 17.86551 | 2856 ft | 178 kts | 8° |
| 2026-05-03 23:46 | 59.51733 | 17.86994 | 2623 ft | 179 kts | 7° |
| 2026-05-03 23:46 | 59.52961 | 17.87426 | 2395 ft | 179 kts | 7° |
| 2026-05-03 23:46 | 59.54179 | 17.87863 | 2160 ft | 176 kts | 8° |
| 2026-05-03 23:47 | 59.55383 | 17.88300 | 1908 ft | 176 kts | 8° |
| 2026-05-03 23:47 | 59.56579 | 17.88734 | 1662 ft | 172 kts | 8° |
| 2026-05-03 23:47 | 59.57713 | 17.89146 | 1452 ft | 158 kts | 9° |
| 2026-05-03 23:47 | 59.58794 | 17.89538 | 1207 ft | 157 kts | 9° |
| 2026-05-03 23:48 | 59.59851 | 17.89912 | 989 ft | 153 kts | 9° |
| 2026-05-03 23:48 | 59.60895 | 17.90291 | 760 ft | 152 kts | 11° |
| 2026-05-03 23:48 | 59.61935 | 17.90674 | 546 ft | 152 kts | 11° |
| 2026-05-03 23:48 | 59.62980 | 17.91055 | 316 ft | 152 kts | 11° |
| 2026-05-03 23:49 | 59.64023 | 17.91427 | 116 ft | 149 kts | 9° |
| 2026-05-03 23:49 | 59.64929 | 17.91756 | 104 ft | 106 kts | 11° |
| 2026-05-03 23:49 | 59.65400 | 17.91928 | 105 ft | 43 kts | 11° |
| 2026-05-03 23:49 | 59.65604 | 17.92014 | 107 ft | 23 kts | 19° |
| 2026-05-03 23:50 | 59.65739 | 17.92162 | 105 ft | 18 kts | 37° |
| 2026-05-03 23:50 | 59.65793 | 17.92268 | 105 ft | 16 kts | 61° |
| 2026-05-03 23:50 | 59.65707 | 17.92443 | 103 ft | 15 kts | 167° |
| 2026-05-03 23:50 | 59.65604 | 17.92492 | 103 ft | 15 kts | 165° |
| 2026-05-03 23:51 | 59.65506 | 17.92550 | 105 ft | 14 kts | 156° |
| 2026-05-03 23:51 | 59.65424 | 17.92635 | 109 ft | 12 kts | 151° |
| 2026-05-03 23:51 | 59.65353 | 17.92712 | 111 ft | 12 kts | 152° |
| 2026-05-03 23:51 | 59.65284 | 17.92785 | 111 ft | 8 kts | 152° |
| 2026-05-03 23:52 | 59.65274 | 17.92873 | 111 ft | 7 kts | 72° |
| 2026-05-03 23:52 | 59.65284 | 17.92932 | 111 ft | 4 kts | 70° |
| 2026-05-03 23:52 | 59.65288 | 17.92956 | 109 ft | 0 kts | 71° |